Time;durP1;ratioP1;P1;durP2;ratioP2;P2;SDS_P1;SDS_P2;PMS_P1;PMS_P2;Temp;Humidity;BMP_temperature;BMP_pressure;BME280_temperature;BME280_humidity;BME280_pressure;Samples;Min_cycle;Max_cycle;Signal;HPM_P1;HPM_P2
2023/03/24 00:00:16;;;;;;;12.70;9.07;;;;;;;8.48;100.00;98949.72;4975735;28;20118;-96
2023/03/24 00:02:50;;;;;;;16.35;9.65;;;;;;;8.57;100.00;98973.47;4974776;28;20058;-95
2023/03/24 00:05:19;;;;;;;15.35;9.77;;;;;;;8.49;100.00;98975.34;4975309;28;20055;-95
2023/03/24 00:07:46;;;;;;;12.35;8.68;;;;;;;8.38;100.00;98955.16;4975326;28;20128;-95
2023/03/24 00:10:16;;;;;;;15.65;9.52;;;;;;;8.29;100.00;98950.00;4974537;28;20047;-96
2023/03/24 00:12:43;;;;;;;14.30;9.38;;;;;;;8.18;100.00;98944.84;4975543;28;20058;-96
2023/03/24 00:15:18;;;;;;;16.75;9.30;;;;;;;8.16;100.00;98961.69;4975561;28;20105;-96
2023/03/24 00:17:49;;;;;;;15.82;9.60;;;;;;;8.10;100.00;98952.03;4974606;28;20058;-96
2023/03/24 00:20:16;;;;;;;14.40;9.82;;;;;;;8.28;100.00;98993.28;4975108;28;20118;-96
2023/03/24 00:22:49;;;;;;;15.25;10.68;;;;;;;8.08;100.00;98961.78;4974825;28;20061;-96
2023/03/24 00:25:18;;;;;;;15.63;10.35;;;;;;;8.08;100.00;98963.56;4974757;28;20067;-96
2023/03/24 00:27:47;;;;;;;16.90;10.98;;;;;;;7.94;100.00;98955.81;4975308;28;20123;-95
2023/03/24 00:30:16;;;;;;;;;;;;;;;8.18;100.00;98999.63;4974518;28;20496;-95
2023/03/24 00:32:45;;;;;;;15.57;10.30;;;;;;;7.94;100.00;98951.38;4974934;28;19987;-96
2023/03/24 00:35:15;;;;;;;;;;;;;;;8.16;100.00;98993.47;4975584;28;20046;-96
2023/03/24 00:37:44;;;;;;;18.58;11.30;;;;;;;7.94;100.00;98964.63;4975305;28;19957;-95
2023/03/24 00:40:15;;;;;;;17.05;10.95;;;;;;;7.81;100.00;98947.16;4975626;28;20043;-95
2023/03/24 00:42:44;;;;;;;18.77;11.93;;;;;;;7.86;100.00;98947.09;4974583;28;20137;-95
2023/03/24 00:45:16;;;;;;;19.50;11.93;;;;;;;7.82;100.00;98954.19;4973424;28;20066;-94
2023/03/24 00:47:43;;;;;;;17.60;11.60;;;;;;;7.85;100.00;98972.69;4967083;28;20047;-96
2023/03/24 00:50:16;;;;;;;17.95;12.13;;;;;;;7.87;100.00;98978.84;4966727;28;20043;-96
2023/03/24 00:52:46;;;;;;;19.15;12.07;;;;;;;7.70;100.00;98954.31;4967451;28;20049;-96
2023/03/24 00:55:14;;;;;;;19.13;11.82;;;;;;;7.70;100.00;98949.94;4967523;28;20046;-95
2023/03/24 00:57:48;;;;;;;18.45;11.80;;;;;;;7.71;100.00;98951.66;4967224;28;20141;-96
2023/03/24 01:00:19;;;;;;;22.10;11.55;;;;;;;7.87;100.00;98984.16;4966421;28;20175;-94
2023/03/24 01:02:47;;;;;;;19.60;12.05;;;;;;;7.71;100.00;98972.84;4965965;28;20097;-93
2023/03/24 01:05:16;;;;;;;19.65;12.73;;;;;;;7.59;100.00;98944.78;4965977;28;20050;-96
2023/03/24 01:07:43;;;;;;;18.95;11.80;;;;;;;7.63;100.00;98950.00;4966960;28;20113;-95
2023/03/24 01:10:12;;;;;;;18.85;11.70;;;;;;;7.55;100.00;98958.94;4966163;28;20508;-96
2023/03/24 01:12:41;;;;;;;16.38;11.68;;;;;;;7.54;100.00;98966.88;4966889;28;20564;-96
2023/03/24 01:15:15;;;;;;;18.85;12.23;;;;;;;7.47;100.00;98962.56;4965451;28;20038;-96
2023/03/24 01:17:42;;;;;;;19.42;12.38;;;;;;;7.44;100.00;98955.53;4957132;28;20047;-95
2023/03/24 01:20:10;;;;;;;19.77;12.25;;;;;;;7.47;100.00;98973.16;4966780;28;20516;-94
2023/03/24 01:22:39;;;;;;;20.10;12.75;;;;;;;7.49;100.00;98969.59;4965094;28;20047;-95
2023/03/24 01:25:06;;;;;;;;;;;;;;;7.57;100.00;98990.69;4967120;28;20043;-95
2023/03/24 01:27:32;;;;;;;20.38;12.85;;;;;;;7.39;100.00;98960.88;4966793;28;19922;-94
2023/03/24 01:29:59;;;;;;;18.45;12.38;;;;;;;7.40;100.00;98957.34;4966646;28;20066;-94
2023/03/24 01:32:26;;;;;;;19.55;12.88;;;;;;;7.32;100.00;98960.97;4966875;28;20133;-94
2023/03/24 01:34:57;;;;;;;18.08;12.45;;;;;;;7.36;100.00;98973.25;4965599;28;20046;-96
2023/03/24 01:37:23;;;;;;;21.92;13.38;;;;;;;7.20;100.00;98946.13;4966432;28;20050;-96
2023/03/24 01:39:51;;;;;;;23.23;13.80;;;;;;;7.23;100.00;98953.13;4965416;28;20039;-93
2023/03/24 01:42:18;;;;;;;18.73;12.52;;;;;;;7.17;100.00;98949.63;4966703;28;20050;-95
2023/03/24 01:44:45;;;;;;;20.55;14.18;;;;;;;7.08;100.00;98949.75;4966165;28;20047;-96
2023/03/24 01:47:12;;;;;;;20.42;13.52;;;;;;;7.11;100.00;98955.03;4965747;28;20125;-94
2023/03/24 01:49:43;;;;;;;21.42;13.45;;;;;;;7.24;100.00;98971.59;4966003;28;20058;-96
2023/03/24 01:52:17;;;;;;;20.10;13.38;;;;;;;7.11;100.00;98944.44;4966381;28;20051;-94
2023/03/24 01:54:48;;;;;;;20.63;14.10;;;;;;;7.09;100.00;98946.22;4966162;28;20094;-95
2023/03/24 01:57:21;;;;;;;24.98;14.80;;;;;;;7.13;100.00;98963.78;4966264;28;20050;-96
2023/03/24 01:59:49;;;;;;;23.10;13.52;;;;;;;7.13;100.00;98962.91;4963701;28;20051;-94
2023/03/24 02:02:16;;;;;;;20.13;13.23;;;;;;;7.03;100.00;98950.69;4965867;28;20053;-94
2023/03/24 02:04:49;;;;;;;21.08;12.82;;;;;;;6.95;100.00;98933.13;4966355;28;20066;-95
2023/03/24 02:07:20;;;;;;;20.08;13.43;;;;;;;6.86;100.00;98927.06;4966258;28;20049;-95
2023/03/24 02:09:49;;;;;;;18.83;13.00;;;;;;;6.86;100.00;98927.94;4965880;28;20049;-96
2023/03/24 02:12:18;;;;;;;21.38;12.77;;;;;;;7.15;100.00;98974.34;4966531;28;20145;-96
2023/03/24 02:14:45;;;;;;;21.70;12.68;;;;;;;6.93;100.00;98936.69;4966539;28;20047;-96
2023/03/24 02:17:42;;;;;;;17.17;12.25;;;;;;;6.90;100.00;98934.94;4965136;28;20039;-95
2023/03/24 02:20:42;;;;;;;22.45;12.18;;;;;;;7.04;100.00;98950.66;4956190;29;20043;-95
2023/03/24 02:23:31;;;;;;;21.50;11.52;;;;;;;7.09;100.00;98937.38;4946527;29;20070;-95
2023/03/24 02:26:18;;;;;;;19.55;11.88;;;;;;;7.14;100.00;98933.81;4962322;28;20094;-96
2023/03/24 02:28:56;;;;;;;19.38;12.25;;;;;;;7.34;100.00;98973.28;4965714;28;20043;-95
2023/03/24 02:31:53;;;;;;;18.05;12.15;;;;;;;7.13;100.00;98939.97;4965718;28;20050;-94
2023/03/24 02:35:06;;;;;;;18.90;12.00;;;;;;;7.28;100.00;98975.97;4961549;28;20094;-95
2023/03/24 02:37:55;;;;;;;15.75;10.77;;;;;;;7.18;100.00;98972.56;4921671;28;20101;-95
2023/03/24 02:40:31;;;;;;;;;;;;;;;7.19;100.00;98978.72;4966670;28;20111;-94
2023/03/24 02:43:14;;;;;;;17.52;11.48;;;;;;;6.94;100.00;98936.66;4965957;28;19922;-96
2023/03/24 02:45:51;;;;;;;18.63;11.70;;;;;;;6.98;100.00;98953.34;4965756;28;20057;-95
2023/03/24 02:48:26;;;;;;;19.83;12.07;;;;;;;6.74;100.00;98939.50;4965770;28;20051;-95
2023/03/24 02:51:00;;;;;;;19.05;12.15;;;;;;;6.66;100.00;98914.91;4965349;28;20053;-95
2023/03/24 02:53:38;;;;;;;21.65;12.88;;;;;;;6.69;100.00;98925.44;4965215;28;20505;-94
2023/03/24 02:56:12;;;;;;;20.85;12.05;;;;;;;6.73;100.00;98921.00;4965381;28;20047;-95
2023/03/24 02:58:44;;;;;;;20.77;13.02;;;;;;;6.84;100.00;98950.00;4965219;28;20377;-95
2023/03/24 03:01:18;;;;;;;21.92;13.82;;;;;;;6.78;100.00;98929.75;4964588;28;20055;-94
2023/03/24 03:03:48;;;;;;;20.95;13.13;;;;;;;6.81;100.00;98923.56;4964681;28;20038;-92
2023/03/24 03:06:20;;;;;;;21.15;12.05;;;;;;;6.77;100.00;98918.31;4964375;28;20046;-96
2023/03/24 03:08:47;;;;;;;21.58;12.27;;;;;;;6.82;100.00;98935.91;4965098;28;20134;-95
2023/03/24 03:11:17;;;;;;;20.67;13.25;;;;;;;6.88;100.00;98947.31;4965469;28;20055;-95
2023/03/24 03:13:50;;;;;;;20.88;12.50;;;;;;;6.78;100.00;98929.75;4964879;28;20050;-94
2023/03/24 03:16:24;;;;;;;21.45;12.98;;;;;;;6.97;100.00;98963.06;4964549;28;20043;-95
2023/03/24 03:18:58;;;;;;;20.88;12.93;;;;;;;6.81;100.00;98936.78;4964520;28;20039;-95
2023/03/24 03:21:28;;;;;;;20.85;12.88;;;;;;;6.79;100.00;98928.88;4965148;28;20047;-96
2023/03/24 03:24:01;;;;;;;20.40;13.23;;;;;;;6.74;100.00;98934.22;4964607;28;20050;-94
2023/03/24 03:26:31;;;;;;;21.45;13.05;;;;;;;6.93;100.00;98965.75;4964683;28;20050;-95
2023/03/24 03:29:04;;;;;;;21.13;13.07;;;;;;;6.73;100.00;98924.53;4964947;28;20133;-95
2023/03/24 03:31:40;;;;;;;21.33;12.07;;;;;;;6.94;100.00;98965.75;4964469;28;20097;-94
2023/03/24 03:34:13;;;;;;;20.92;12.50;;;;;;;6.71;100.00;98934.22;4964626;28;20440;-93
2023/03/24 03:36:51;;;;;;;19.90;11.38;;;;;;;6.68;100.00;98943.94;4965241;28;20043;-96
2023/03/24 03:39:27;;;;;;;20.88;12.38;;;;;;;6.71;100.00;98955.38;4965483;28;20497;-94
2023/03/24 03:41:55;;;;;;;18.77;12.57;;;;;;;6.74;100.00;98949.19;4946067;29;20465;-94
2023/03/24 03:44:23;;;;;;;18.70;11.73;;;;;;;6.51;100.00;98923.84;4961406;28;20493;-95
2023/03/24 03:46:49;;;;;;;20.13;12.75;;;;;;;6.56;100.00;98937.00;4967539;28;20043;-94
2023/03/24 03:49:15;;;;;;;21.98;13.05;;;;;;;6.43;100.00;98927.44;4968212;28;20094;-94
2023/03/24 03:51:41;;;;;;;22.80;13.40;;;;;;;6.63;100.00;98964.25;4968015;28;20049;-94
2023/03/24 03:54:11;;;;;;;22.10;13.07;;;;;;;6.47;100.00;98955.59;4968126;28;20074;-94
2023/03/24 03:56:39;;;;;;;20.50;12.80;;;;;;;6.53;100.00;98966.09;4967674;28;20046;-94
2023/03/24 03:59:28;;;;;;;23.05;13.68;;;;;;;6.40;100.00;98935.38;4968680;28;20070;-94
2023/03/24 04:01:55;;;;;;;21.05;13.68;;;;;;;6.52;100.00;98962.56;4965206;28;20059;-94
2023/03/24 04:04:47;;;;;;;22.90;13.55;;;;;;;6.50;100.00;98971.41;4964608;28;20050;-94
2023/03/24 04:07:23;;;;;;;22.38;14.35;;;;;;;6.27;100.00;98932.84;4968009;28;20043;-95
2023/03/24 04:10:00;;;;;;;24.83;14.60;;;;;;;6.31;100.00;98939.84;4965345;28;20122;-94
2023/03/24 04:12:44;;;;;;;24.77;14.98;;;;;;;6.38;100.00;98932.75;4951360;28;20047;-94
2023/03/24 04:15:38;;;;;;;22.20;14.13;;;;;;;6.51;100.00;98962.59;4963824;29;20051;-94
2023/03/24 04:18:20;;;;;;;23.15;14.40;;;;;;;6.25;100.00;98926.69;4945623;29;20074;-96
2023/03/24 04:20:48;;;;;;;23.77;14.50;;;;;;;6.30;100.00;98932.78;4962833;28;20133;-93
2023/03/24 04:23:26;;;;;;;20.33;13.48;;;;;;;6.19;100.00;98924.09;4960153;28;20050;-93
2023/03/24 04:26:05;;;;;;;22.13;13.95;;;;;;;6.42;100.00;98963.53;4955281;28;20066;-93
2023/03/24 04:28:40;;;;;;;23.52;13.13;;;;;;;6.15;100.00;98917.06;4961387;28;20043;-94
2023/03/24 04:31:15;;;;;;;22.45;13.48;;;;;;;6.16;100.00;98919.69;4968136;28;20042;-94
2023/03/24 04:33:50;;;;;;;21.40;14.05;;;;;;;6.13;100.00;98909.16;4968183;28;20039;-95
2023/03/24 04:36:26;;;;;;;24.40;14.50;;;;;;;6.26;100.00;98938.97;4967561;28;20097;-94
2023/03/24 04:38:56;;;;;;;22.05;14.32;;;;;;;6.31;100.00;98946.88;4967785;28;20047;-94
2023/03/24 04:41:26;;;;;;;23.92;14.38;;;;;;;6.13;100.00;98924.13;4967613;28;20049;-94
2023/03/24 04:43:55;;;;;;;26.67;15.02;;;;;;;6.06;100.00;98914.50;4962379;28;20047;-94
2023/03/24 04:46:36;;;;;;;21.80;13.63;;;;;;;6.07;100.00;98924.16;4966437;28;20101;-93
2023/03/24 04:49:05;;;;;;;23.75;13.85;;;;;;;6.03;100.00;98930.34;4967312;28;20042;-93
2023/03/24 04:51:34;;;;;;;22.63;13.13;;;;;;;6.19;100.00;98960.19;4966091;28;20138;-94
2023/03/24 04:54:00;;;;;;;;;;;;;;;6.21;100.00;98971.59;4968262;28;20046;-93
2023/03/24 04:56:40;;;;;;;20.52;12.73;;;;;;;5.99;100.00;98923.34;4966785;28;19918;-96
2023/03/24 04:59:07;;;;;;;20.02;12.63;;;;;;;6.15;100.00;98951.38;4967204;28;20043;-95
2023/03/24 05:01:36;;;;;;;20.98;13.13;;;;;;;6.18;100.00;98956.66;4966446;28;20043;-94
2023/03/24 05:04:05;;;;;;;20.45;12.60;;;;;;;5.99;100.00;98928.63;4966963;28;20069;-93
2023/03/24 05:06:32;;;;;;;23.27;13.48;;;;;;;6.23;100.00;98976.00;4966851;28;20055;-94
2023/03/24 05:08:58;;;;;;;23.50;13.35;;;;;;;6.05;100.00;98931.22;4967389;28;20047;-95
2023/03/24 05:11:26;;;;;;;21.48;13.15;;;;;;;6.17;100.00;98950.50;4953106;29;20516;-94
2023/03/24 05:13:52;;;;;;;21.63;13.45;;;;;;;6.13;100.00;98937.31;4957892;28;20137;-95
2023/03/24 05:16:21;;;;;;;23.33;13.25;;;;;;;6.32;100.00;98972.41;4968666;28;20054;-93
2023/03/24 05:18:48;;;;;;;24.35;14.35;;;;;;;6.20;100.00;98952.22;4967858;28;20046;-94
2023/03/24 05:21:14;;;;;;;23.17;13.77;;;;;;;6.43;100.00;98981.13;4967524;28;20064;-94
2023/03/24 05:23:40;;;;;;;23.90;13.55;;;;;;;6.23;100.00;98944.31;4967592;28;20043;-93
2023/03/24 05:26:09;;;;;;;24.05;12.80;;;;;;;6.19;100.00;98945.22;4967477;28;20097;-93
2023/03/24 05:28:37;;;;;;;20.30;12.88;;;;;;;6.31;100.00;98960.97;4967288;28;20492;-95
2023/03/24 05:31:06;;;;;;;22.25;13.32;;;;;;;6.23;100.00;98946.94;4966864;28;20039;-95
2023/03/24 05:33:32;;;;;;;20.48;11.43;;;;;;;6.26;100.00;98952.19;4967462;28;20046;-95
2023/03/24 05:35:59;;;;;;;18.90;11.95;;;;;;;6.31;100.00;98949.50;4968263;28;20493;-94
2023/03/24 05:38:25;;;;;;;22.40;13.27;;;;;;;6.38;100.00;98967.09;4967258;28;20053;-93
2023/03/24 05:40:51;;;;;;;18.50;12.30;;;;;;;6.45;100.00;98976.72;4967141;28;20133;-95
2023/03/24 05:43:17;;;;;;;18.98;12.07;;;;;;;6.43;100.00;98974.97;4966716;28;20409;-94
2023/03/24 05:45:43;;;;;;;19.92;12.30;;;;;;;6.67;100.00;98995.94;4966640;28;20489;-93
2023/03/24 05:48:09;;;;;;;18.80;12.27;;;;;;;6.66;100.00;98988.91;4966280;28;20047;-94
2023/03/24 05:50:35;;;;;;;20.73;11.90;;;;;;;6.57;100.00;98968.72;4966929;28;20043;-93
2023/03/24 05:53:02;;;;;;;19.42;11.98;;;;;;;6.76;100.00;98989.69;4961634;29;20043;-94
2023/03/24 05:55:29;;;;;;;19.65;12.70;;;;;;;6.88;100.00;99013.38;4964760;28;20066;-94
2023/03/24 05:57:55;;;;;;;17.83;11.90;;;;;;;6.70;100.00;98980.06;4962635;28;20035;-94
2023/03/24 06:00:22;;;;;;;29.65;16.77;;;;;;;6.73;100.00;98979.16;4947710;29;20493;-94
2023/03/24 06:02:48;;;;;;;25.80;16.45;;;;;;;6.77;100.00;98970.31;4959677;28;20075;-95
2023/03/24 06:05:14;;;;;;;21.95;14.00;;;;;;;6.93;100.00;98977.19;4966330;28;20055;-95
2023/03/24 06:07:41;;;;;;;23.52;14.95;;;;;;;7.05;100.00;98983.25;4967015;28;20051;-92
2023/03/24 06:10:10;;;;;;;21.52;14.57;;;;;;;7.12;100.00;98977.91;4966098;28;20042;-94
2023/03/24 06:12:37;;;;;;;22.85;14.25;;;;;;;7.35;100.00;98992.66;4966943;28;20078;-95
2023/03/24 06:15:06;;;;;;;28.35;15.30;;;;;;;7.47;100.00;98992.53;4967079;28;20042;-94
2023/03/24 06:17:32;;;;;;;25.50;16.23;;;;;;;7.57;100.00;98994.19;4966789;28;20047;-92
2023/03/24 06:20:04;;;;;;;27.20;16.15;;;;;;;7.80;100.00;99000.97;4968448;28;20027;-93
2023/03/24 06:22:32;;;;;;;28.63;16.20;;;;;;;7.88;100.00;98999.13;4964075;28;20048;-95
2023/03/24 06:24:58;;;;;;;27.48;15.75;;;;;;;8.07;100.00;99017.41;4969085;28;20043;-95
2023/03/24 06:27:28;;;;;;;25.52;14.32;;;;;;;8.15;100.00;99005.81;4969751;28;20050;-92
2023/03/24 06:29:56;;;;;;;22.15;14.90;;;;;;;8.07;100.00;98975.03;4969417;28;20122;-96
2023/03/24 06:32:22;;;;;;;24.25;16.15;;;;;;;8.33;100.00;98996.75;4967813;28;20082;-94
2023/03/24 06:34:48;;;;;;;24.02;14.77;;;;;;;8.29;100.00;98971.19;4967054;28;20118;-94
2023/03/24 06:37:14;;;;;;;22.58;14.30;;;;;;;8.45;100.00;98973.66;4966920;28;20539;-95
2023/03/24 06:39:44;;;;;;;26.25;14.73;;;;;;;8.54;100.00;98969.06;4969379;28;20054;-96
2023/03/24 06:42:13;;;;;;;22.48;14.32;;;;;;;8.63;100.00;98968.94;4969263;28;20496;-95
2023/03/24 06:44:40;;;;;;;;;;;;;;;8.97;100.00;99012.59;4969959;28;20047;-94
2023/03/24 06:47:07;;;;;;;21.35;13.40;;;;;;;8.91;100.00;98989.69;4967280;28;19954;-94
2023/03/24 06:49:33;;;;;;;21.33;14.50;;;;;;;9.19;100.00;99013.09;4966479;28;20078;-96
2023/03/24 06:52:00;;;;;;;22.38;13.90;;;;;;;9.07;100.00;98992.97;4966667;28;20109;-95
2023/03/24 06:54:27;;;;;;;21.45;14.02;;;;;;;9.16;100.00;99007.84;4965342;28;20051;-96
2023/03/24 06:56:53;;;;;;;23.50;14.00;;;;;;;9.20;100.00;98998.94;4966825;28;20050;-95
2023/03/24 06:59:22;;;;;;;23.70;14.27;;;;;;;9.28;100.00;98988.16;4965739;28;20039;-95
2023/03/24 07:01:50;;;;;;;20.45;13.57;;;;;;;9.25;100.00;98974.03;4966343;28;20053;-96
2023/03/24 07:04:16;;;;;;;22.42;13.48;;;;;;;9.26;100.00;99014.75;4966225;28;20047;-95
2023/03/24 07:06:42;;;;;;;19.27;13.50;;;;;;;9.14;100.00;98984.00;4965201;28;20055;-96
2023/03/24 07:09:08;;;;;;;18.27;13.25;;;;;;;9.29;100.00;98968.69;4966655;28;20146;-95
2023/03/24 07:11:35;;;;;;;27.67;14.35;;;;;;;9.53;100.00;98972.66;4968283;28;20055;-95
2023/03/24 07:14:02;;;;;;;31.85;14.77;;;;;;;9.56;100.00;98969.94;4968684;28;20043;-95
2023/03/24 07:16:29;;;;;;;30.27;13.80;;;;;;;9.71;100.00;98968.75;4965762;28;20065;-95
2023/03/24 07:18:56;;;;;;;26.80;14.55;;;;;;;9.97;100.00;98976.19;4965812;28;20050;-96
2023/03/24 07:21:22;;;;;;;26.80;14.43;;;;;;;10.04;100.00;98978.69;4968976;28;20047;-95
2023/03/24 07:23:48;;;;;;;25.77;13.55;;;;;;;10.12;100.00;98977.63;4969665;28;20142;-94
2023/03/24 07:26:15;;;;;;;24.50;13.80;;;;;;;10.18;100.00;98972.19;4969134;28;20051;-96
2023/03/24 07:28:41;;;;;;;24.70;14.98;;;;;;;10.60;100.00;99004.91;4969107;28;20051;-96
2023/03/24 07:31:09;;;;;;;23.60;15.00;;;;;;;10.67;100.00;98987.06;4969004;28;20050;-95
2023/03/24 07:33:36;;;;;;;29.80;13.60;;;;;;;10.58;100.00;98974.84;4970239;28;20050;-95
2023/03/24 07:36:06;;;;;;;22.10;13.60;;;;;;;10.81;100.00;98995.56;4969798;28;20050;-95
2023/03/24 07:38:32;;;;;;;22.75;13.50;;;;;;;11.13;100.00;99017.84;4969059;28;20035;-95
2023/03/24 07:40:59;;;;;;;25.17;13.57;;;;;;;11.13;100.00;98977.06;4968258;28;20047;-95
2023/03/24 07:43:25;;;;;;;22.08;13.02;;;;;;;11.35;100.00;98990.66;4969645;28;20114;-96
2023/03/24 07:45:55;;;;;;;19.63;13.40;;;;;;;11.48;99.81;98981.41;4968821;28;20062;-94
2023/03/24 07:48:22;;;;;;;;;;;;;;;11.55;100.00;99009.63;4971264;28;20051;-95
2023/03/24 07:50:48;;;;;;;25.77;14.05;;;;;;;11.56;98.59;98966.13;4971349;28;20383;-93
2023/03/24 07:53:18;;;;;;;19.35;12.27;;;;;;;11.85;97.36;98967.94;4970094;28;20051;-96
2023/03/24 07:55:45;;;;;;;25.48;13.77;;;;;;;11.94;95.20;98961.50;4970586;28;20043;-94
2023/03/24 07:58:11;;;;;;;21.70;13.27;;;;;;;11.90;93.35;99002.47;4970767;28;20051;-94
2023/03/24 08:00:37;;;;;;;21.77;13.90;;;;;;;11.89;94.49;98980.28;4970231;28;20050;-95
2023/03/24 08:03:03;;;;;;;22.40;14.32;;;;;;;11.81;95.38;98978.72;4971074;28;20047;-93
2023/03/24 08:05:29;;;;;;;21.10;13.70;;;;;;;12.06;96.13;98984.25;4970044;28;20057;-93
2023/03/24 08:07:57;;;;;;;21.60;13.05;;;;;;;12.39;92.74;98974.34;4971076;28;20580;-94
2023/03/24 08:10:26;;;;;;;21.15;13.43;;;;;;;11.99;91.97;98970.25;4971439;28;20042;-95
2023/03/24 08:12:52;;;;;;;20.17;13.65;;;;;;;12.45;91.55;98982.16;4971622;28;20074;-94
2023/03/24 08:15:19;;;;;;;21.33;12.38;;;;;;;12.45;90.52;98976.84;4971838;28;20047;-95
2023/03/24 08:17:47;;;;;;;18.67;12.38;;;;;;;12.66;89.62;98971.72;4972151;28;20070;-94
2023/03/24 08:20:17;;;;;;;21.27;12.57;;;;;;;12.94;88.04;98985.91;4970328;28;20047;-94
2023/03/24 08:22:48;;;;;;;18.95;11.95;;;;;;;12.90;88.05;98975.38;4969952;28;20149;-96
2023/03/24 08:25:16;;;;;;;19.75;12.23;;;;;;;12.62;88.53;98991.41;4969456;28;20052;-96
2023/03/24 08:27:43;;;;;;;19.10;12.50;;;;;;;12.95;89.30;98994.81;4968235;28;20050;-95
2023/03/24 08:30:14;;;;;;;17.13;11.75;;;;;;;13.09;87.43;98965.81;4969329;28;20039;-96
2023/03/24 08:32:44;;;;;;;17.45;11.85;;;;;;;13.17;85.81;98957.56;4969383;28;20047;-96
2023/03/24 08:35:11;;;;;;;21.45;11.98;;;;;;;13.34;84.67;98962.38;4969419;28;20047;-94
2023/03/24 08:37:37;;;;;;;17.02;11.35;;;;;;;13.51;86.19;98957.28;4970712;28;20050;-94
2023/03/24 08:40:05;;;;;;;18.83;12.23;;;;;;;13.79;83.20;98947.38;4969339;28;20039;-96
2023/03/24 08:42:32;;;;;;;18.58;11.75;;;;;;;14.06;81.93;98958.84;4969978;28;20053;-95
2023/03/24 08:45:00;;;;;;;19.27;11.75;;;;;;;14.35;80.23;98974.59;4969974;28;20047;-96
2023/03/24 08:47:28;;;;;;;21.77;13.98;;;;;;;14.43;80.22;98968.97;4969261;28;20058;-94
2023/03/24 08:49:56;;;;;;;17.83;12.48;;;;;;;14.30;78.68;98963.22;4969894;28;20053;-95
2023/03/24 08:52:22;;;;;;;18.73;11.43;;;;;;;14.38;80.02;98965.63;4970675;28;20452;-95
2023/03/24 08:54:48;;;;;;;22.42;12.40;;;;;;;14.63;78.04;98978.03;4970219;28;20047;-94
2023/03/24 08:57:15;;;;;;;17.60;11.85;;;;;;;14.75;77.87;98967.72;4969236;28;20118;-96
2023/03/24 08:59:41;;;;;;;20.00;11.70;;;;;;;14.81;76.73;98966.56;4968393;28;20043;-95
2023/03/24 09:02:10;;;;;;;19.75;11.95;;;;;;;14.95;73.75;98988.31;4968006;28;20050;-95
2023/03/24 09:04:36;;;;;;;16.65;11.70;;;;;;;14.91;73.57;98981.34;4968213;28;20047;-95
2023/03/24 09:07:02;;;;;;;18.30;10.95;;;;;;;14.94;75.96;98983.00;4966907;28;20062;-93
2023/03/24 09:09:29;;;;;;;18.77;11.30;;;;;;;15.04;74.99;98978.16;4968157;28;20047;-94
2023/03/24 09:11:55;;;;;;;20.77;11.80;;;;;;;14.82;74.52;98962.97;4968699;28;20055;-94
2023/03/24 09:14:21;;;;;;;16.17;11.50;;;;;;;15.04;76.37;98962.09;4968026;28;20046;-95
2023/03/24 09:16:49;;;;;;;16.60;10.82;;;;;;;15.25;73.64;98979.06;4967255;28;20043;-94
2023/03/24 09:19:16;;;;;;;17.65;11.65;;;;;;;15.16;74.96;98953.53;4966608;28;20031;-94
2023/03/24 09:21:44;;;;;;;16.75;11.13;;;;;;;15.27;74.42;98945.03;4967232;28;20057;-94
2023/03/24 09:24:15;;;;;;;17.05;12.25;;;;;;;15.06;73.52;98938.78;4966307;28;20050;-95
2023/03/24 09:26:41;;;;;;;15.38;10.63;;;;;;;15.12;74.26;98938.53;4968086;28;20106;-96
2023/03/24 09:29:10;;;;;;;16.60;10.40;;;;;;;15.31;73.82;98942.16;4967179;28;20074;-95
2023/03/24 09:31:37;;;;;;;15.07;10.10;;;;;;;15.31;70.92;98950.19;4969309;28;20043;-94
2023/03/24 09:34:03;;;;;;;16.20;9.77;;;;;;;15.53;72.95;98941.22;4967906;28;20053;-95
2023/03/24 09:36:30;;;;;;;16.77;10.45;;;;;;;15.86;71.58;98954.06;4968261;28;20118;-94
2023/03/24 09:38:56;;;;;;;13.43;9.60;;;;;;;16.02;71.23;98968.50;4968869;28;20037;-95
2023/03/24 09:41:26;;;;;;;17.15;9.38;;;;;;;15.98;70.07;98940.97;4969091;28;20046;-96
2023/03/24 09:43:58;;;;;;;13.50;9.15;;;;;;;16.02;70.18;98955.94;4969255;28;20062;-96
2023/03/24 09:46:30;;;;;;;14.02;9.95;;;;;;;16.09;67.84;98971.75;4970302;28;20050;-95
2023/03/24 09:48:57;;;;;;;13.02;8.48;;;;;;;15.91;69.67;98958.25;4968762;28;20077;-95
2023/03/24 09:51:25;;;;;;;12.23;9.20;;;;;;;16.18;69.03;98977.59;4969157;28;20046;-95
2023/03/24 09:54:02;;;;;;;12.98;8.80;;;;;;;16.28;68.12;98961.03;4968506;28;20159;-94
2023/03/24 09:56:31;;;;;;;10.90;7.18;;;;;;;16.46;68.07;98987.03;4967959;28;20102;-95
2023/03/24 09:59:04;;;;;;;12.18;8.43;;;;;;;16.43;67.44;98963.00;4967516;28;20050;-94
2023/03/24 10:01:32;;;;;;;15.05;8.07;;;;;;;16.52;67.58;98965.22;4967410;28;20053;-95
2023/03/24 10:03:59;;;;;;;11.77;7.45;;;;;;;16.67;66.52;98978.88;4967687;28;20051;-95
2023/03/24 10:06:27;;;;;;;9.55;6.70;;;;;;;16.50;66.64;98966.25;4966161;28;20047;-94
2023/03/24 10:09:14;;;;;;;11.80;6.18;;;;;;;16.78;65.13;98965.78;4968104;28;20038;-95
2023/03/24 10:11:49;;;;;;;8.05;6.20;;;;;;;16.55;65.76;98969.59;4971052;28;20058;-95
2023/03/24 10:14:43;;;;;;;10.93;6.97;;;;;;;16.71;65.63;98959.84;4969479;28;20074;-96
2023/03/24 10:17:18;;;;;;;9.55;6.28;;;;;;;16.68;64.43;98964.53;4970179;28;20039;-95
2023/03/24 10:20:01;;;;;;;10.73;5.63;;;;;;;16.62;64.53;98961.16;4969670;28;20492;-96
2023/03/24 10:22:31;;;;;;;10.48;5.68;;;;;;;16.27;65.35;98956.63;4969989;28;20357;-95
2023/03/24 10:25:07;;;;;;;8.95;5.97;;;;;;;16.60;64.91;98962.19;4969802;28;20057;-95
2023/03/24 10:27:38;;;;;;;12.18;7.18;;;;;;;16.75;66.47;98961.44;4968854;28;20067;-95
2023/03/24 10:30:15;;;;;;;10.00;5.82;;;;;;;17.05;65.66;98971.66;4968533;28;20149;-96
2023/03/24 10:32:45;;;;;;;9.38;5.70;;;;;;;17.15;65.59;98954.09;4972074;28;20042;-96
2023/03/24 10:35:17;;;;;;;9.65;5.88;;;;;;;17.40;64.88;98971.66;4969952;28;20046;-95
2023/03/24 10:37:46;;;;;;;8.23;5.93;;;;;;;17.34;64.62;98956.72;4967549;28;20050;-96
2023/03/24 10:40:19;;;;;;;9.95;6.05;;;;;;;17.30;64.94;98952.44;4967774;28;20054;-96
2023/03/24 10:42:48;;;;;;;10.07;6.00;;;;;;;17.23;63.42;98935.75;4967637;28;20102;-95
2023/03/24 10:45:24;;;;;;;7.13;5.35;;;;;;;17.22;63.39;98917.06;4968686;28;20308;-96
2023/03/24 10:47:52;;;;;;;8.48;5.32;;;;;;;17.29;63.03;98918.47;4971643;28;20039;-96
2023/03/24 10:50:23;;;;;;;9.30;5.53;;;;;;;17.33;63.25;98911.97;4971410;28;20050;-96
2023/03/24 10:52:54;;;;;;;9.07;5.40;;;;;;;17.42;63.11;98924.94;4972675;28;20047;-96
2023/03/24 10:55:30;;;;;;;7.50;5.37;;;;;;;17.37;62.68;98918.94;4972038;28;20057;-96
2023/03/24 10:57:58;;;;;;;8.07;5.50;;;;;;;17.06;62.77;98910.72;4974615;28;20531;-96
2023/03/24 11:00:28;;;;;;;8.13;5.43;;;;;;;17.18;62.13;98904.72;4972516;28;20053;-96
2023/03/24 11:02:57;;;;;;;8.40;6.05;;;;;;;17.50;61.89;98953.22;4972763;28;20206;-95
2023/03/24 11:05:29;;;;;;;7.97;5.80;;;;;;;17.41;62.29;98933.97;4972390;28;20102;-96
2023/03/24 11:08:10;;;;;;;8.35;5.30;;;;;;;17.47;62.77;98894.25;4972861;28;20054;-96
2023/03/24 11:10:37;;;;;;;9.38;5.72;;;;;;;17.79;61.70;98909.50;4973287;28;20051;-96
2023/03/24 11:13:17;;;;;;;9.77;5.85;;;;;;;17.76;59.82;98896.25;4972043;28;20051;-95
2023/03/24 11:16:04;;;;;;;8.70;5.60;;;;;;;18.11;60.45;98912.28;4972794;28;20054;-96
2023/03/24 11:18:33;;;;;;;9.60;5.95;;;;;;;18.29;59.25;98904.16;4955363;29;20119;-95
2023/03/24 11:21:04;;;;;;;8.35;5.40;;;;;;;18.43;59.46;98923.94;4955918;28;20039;-96
2023/03/24 11:23:33;;;;;;;8.15;5.68;;;;;;;18.49;58.78;98920.03;4956319;29;20047;-94
2023/03/24 11:26:12;;;;;;;7.60;5.18;;;;;;;18.19;58.92;98899.25;4955621;29;20074;-95
2023/03/24 11:28:42;;;;;;;9.05;5.47;;;;;;;18.27;58.02;98891.63;4956624;29;20122;-95
2023/03/24 11:31:17;;;;;;;9.68;4.95;;;;;;;18.47;57.63;98913.84;4956576;29;20050;-95
2023/03/24 11:33:50;;;;;;;8.05;4.65;;;;;;;18.71;56.91;98924.19;4956290;29;20047;-95
2023/03/24 11:36:46;;;;;;;9.45;5.25;;;;;;;18.49;56.42;98901.16;4955437;29;20058;-95